Time;durP1;ratioP1;P1;durP2;ratioP2;P2;SDS_P1;SDS_P2;PMS_P1;PMS_P2;Temp;Humidity;BMP_temperature;BMP_pressure;BME280_temperature;BME280_humidity;BME280_pressure;Samples;Min_cycle;Max_cycle;Signal;HPM_P1;HPM_P2
2022/07/21 00:01:07;;;;;;;11.60;7.38;;;;;;;-148.14;100.00;65945.72;4990968;28;20026;-86
2022/07/21 00:03:35;;;;;;;11.68;7.50;;;;;;;-148.14;100.00;65945.72;5015467;28;20167;-84
2022/07/21 00:06:02;;;;;;;15.13;7.50;;;;;;;-148.14;100.00;65945.72;5028564;28;20049;-83
2022/07/21 00:08:28;;;;;;;11.48;7.45;;;;;;;-148.14;100.00;65945.72;5007554;28;20026;-84
2022/07/21 00:10:57;;;;;;;16.88;8.65;;;;;;;-148.14;100.00;65945.72;5020335;28;20037;-84
2022/07/21 00:13:23;;;;;;;14.63;7.50;;;;;;;-148.14;100.00;65945.72;5020102;28;20045;-85
2022/07/21 00:15:50;;;;;;;10.82;6.68;;;;;;;-148.14;100.00;65945.72;5007637;28;20702;-84
2022/07/21 00:18:17;;;;;;;17.02;7.95;;;;;;;-148.14;100.00;65945.72;5021207;28;20243;-84
2022/07/21 00:20:43;;;;;;;11.50;7.10;;;;;;;-148.14;100.00;65945.72;4985882;28;20399;-83
2022/07/21 00:23:08;;;;;;;18.08;7.68;;;;;;;-148.14;100.00;65945.72;5006809;28;20033;-84
2022/07/21 00:25:35;;;;;;;17.45;7.25;;;;;;;-148.14;100.00;65945.72;5022906;28;20040;-84
2022/07/21 00:28:03;;;;;;;13.60;7.10;;;;;;;-148.14;100.00;65945.72;5021780;28;20396;-84
2022/07/21 00:30:29;;;;;;;13.40;6.85;;;;;;;-148.14;100.00;65945.72;5025765;28;20030;-83
2022/07/21 00:32:55;;;;;;;13.48;7.32;;;;;;;-148.14;100.00;65945.72;5024390;28;20037;-84
2022/07/21 00:35:21;;;;;;;12.93;6.63;;;;;;;-148.14;100.00;65945.72;5025146;28;20462;-83
2022/07/21 00:37:47;;;;;;;12.00;7.10;;;;;;;-148.14;100.00;65945.72;5008786;28;20126;-84
2022/07/21 00:40:13;;;;;;;12.88;6.90;;;;;;;-148.14;100.00;65945.72;5014488;28;20506;-83
2022/07/21 00:42:39;;;;;;;11.30;7.05;;;;;;;-148.14;100.00;65945.72;5005956;28;20041;-83
2022/07/21 00:45:07;;;;;;;11.32;7.13;;;;;;;-148.14;100.00;65945.72;5006341;28;20072;-83
2022/07/21 00:47:33;;;;;;;10.63;6.47;;;;;;;-148.14;100.00;65945.72;5004613;28;20037;-82
2022/07/21 00:50:03;;;;;;;13.60;5.55;;;;;;;-148.14;100.00;65945.72;5009793;28;20029;-84
2022/07/21 00:52:29;;;;;;;13.18;6.47;;;;;;;-148.14;100.00;65945.72;4999585;28;20124;-83
2022/07/21 00:54:54;;;;;;;10.40;6.47;;;;;;;-148.14;100.00;65945.72;5006042;28;20144;-82
2022/07/21 00:57:20;;;;;;;13.52;6.53;;;;;;;-148.14;100.00;65945.72;5022819;28;20022;-82
2022/07/21 00:59:46;;;;;;;12.00;6.05;;;;;;;-148.14;100.00;65945.72;5023726;28;20448;-82
2022/07/21 01:02:12;;;;;;;13.48;7.03;;;;;;;-148.14;100.00;65945.72;5026966;28;20033;-83
2022/07/21 01:04:38;;;;;;;8.38;6.10;;;;;;;-148.14;100.00;65945.72;5002882;28;20048;-82
2022/07/21 01:07:05;;;;;;;11.45;5.90;;;;;;;-148.14;100.00;65945.72;5020520;28;20033;-82
2022/07/21 01:09:32;;;;;;;9.00;6.18;;;;;;;-148.14;100.00;65945.72;5021737;28;20416;-82
2022/07/21 01:11:58;;;;;;;11.00;6.57;;;;;;;-148.14;100.00;65945.72;5020976;28;20087;-82
2022/07/21 01:14:24;;;;;;;10.52;6.57;;;;;;;-148.14;100.00;65945.72;5004525;28;20387;-82
2022/07/21 01:16:50;;;;;;;14.80;7.82;;;;;;;-148.14;100.00;65945.72;4987103;28;20088;-83
2022/07/21 01:19:16;;;;;;;14.00;8.00;;;;;;;-148.14;100.00;65945.72;5023201;28;20486;-82
2022/07/21 01:21:45;;;;;;;16.60;8.20;;;;;;;-148.14;100.00;65945.72;4987998;28;20038;-82
2022/07/21 01:24:11;;;;;;;13.45;7.90;;;;;;;-148.14;100.00;65945.72;5021405;28;20037;-82
2022/07/21 01:26:42;;;;;;;10.98;7.78;;;;;;;-148.14;100.00;65945.72;5006618;28;20044;-82
2022/07/21 01:29:10;;;;;;;16.85;8.88;;;;;;;-148.14;100.00;65945.72;5024171;28;20490;-82
2022/07/21 01:31:36;;;;;;;10.55;8.07;;;;;;;-148.14;100.00;65945.72;5002224;28;20033;-82
2022/07/21 01:34:03;;;;;;;13.18;8.45;;;;;;;-148.14;100.00;65945.72;5021479;28;20025;-81
2022/07/21 01:36:28;;;;;;;14.23;9.18;;;;;;;-148.14;100.00;65945.72;5002149;28;20461;-82
2022/07/21 01:41:40;;;;;;;15.73;9.20;;;;;;;-148.14;100.00;65945.72;5009621;28;20054;-82
2022/07/21 01:44:08;;;;;;;13.13;7.97;;;;;;;-148.14;100.00;65945.72;4988610;28;20434;-82
2022/07/21 01:46:37;;;;;;;11.75;7.97;;;;;;;-148.14;100.00;65945.72;5005120;28;20037;-83
2022/07/21 01:49:03;;;;;;;10.50;7.50;;;;;;;-148.14;100.00;65945.72;5009163;28;20025;-82
2022/07/21 01:51:29;;;;;;;11.88;7.10;;;;;;;-148.14;100.00;65945.72;5003902;28;20136;-81
2022/07/21 01:53:55;;;;;;;11.20;7.40;;;;;;;-148.14;100.00;65945.72;5006012;28;20034;-82
2022/07/21 01:56:23;;;;;;;11.38;7.38;;;;;;;-148.14;100.00;65945.72;5006944;28;20026;-84
2022/07/21 01:58:51;;;;;;;11.15;7.07;;;;;;;-148.14;100.00;65945.72;5022368;28;20076;-84
2022/07/21 02:01:17;;;;;;;11.73;7.18;;;;;;;-148.14;100.00;65945.72;5005943;28;20468;-86
2022/07/21 02:03:45;;;;;;;11.27;7.18;;;;;;;-148.14;100.00;65945.72;5004143;28;20029;-87
2022/07/21 02:06:12;;;;;;;12.57;7.45;;;;;;;-148.14;100.00;65945.72;4987596;28;20537;-85
2022/07/21 02:08:38;;;;;;;14.98;8.93;;;;;;;-148.14;100.00;65945.72;5024630;28;20568;-84
2022/07/21 02:11:13;;;;;;;11.70;7.43;;;;;;;-148.14;100.00;65945.72;5022966;28;20116;-83
2022/07/21 02:13:39;;;;;;;13.00;7.20;;;;;;;-148.14;100.00;65945.72;5008253;28;20025;-83
2022/07/21 02:16:05;;;;;;;12.02;7.32;;;;;;;-148.14;100.00;65945.72;5005263;28;20032;-84
2022/07/21 02:18:31;;;;;;;13.38;8.50;;;;;;;-148.14;100.00;65945.72;5021341;28;20458;-83
2022/07/21 02:20:56;;;;;;;13.70;9.57;;;;;;;-148.14;100.00;65945.72;5006813;28;20034;-83
2022/07/21 02:23:23;;;;;;;15.13;9.73;;;;;;;-148.14;100.00;65945.72;4989967;28;20037;-84
2022/07/21 02:25:51;;;;;;;19.05;10.98;;;;;;;-148.14;100.00;65945.72;5023126;28;20041;-85
2022/07/21 02:28:18;;;;;;;21.38;11.30;;;;;;;-148.14;100.00;65945.72;5002436;28;20079;-83
2022/07/21 02:30:44;;;;;;;25.50;15.15;;;;;;;-148.14;100.00;65945.72;5026151;28;20483;-84
2022/07/21 02:33:10;;;;;;;32.83;16.02;;;;;;;-148.14;100.00;65945.72;5007211;28;20071;-84
2022/07/21 02:35:37;;;;;;;32.00;15.35;;;;;;;-148.14;100.00;65945.72;5027078;28;20037;-85
2022/07/21 02:38:03;;;;;;;35.35;18.23;;;;;;;-148.14;100.00;65945.72;4994134;28;20033;-84
2022/07/21 02:40:29;;;;;;;30.33;17.17;;;;;;;-148.14;100.00;65945.72;5011502;28;20034;-84
2022/07/21 02:42:56;;;;;;;32.67;16.52;;;;;;;-148.14;100.00;65945.72;5005925;28;20100;-85
2022/07/21 02:45:25;;;;;;;30.60;15.93;;;;;;;-148.14;100.00;65945.72;5012808;28;20041;-85
2022/07/21 02:48:05;;;;;;;29.77;14.73;;;;;;;-148.14;100.00;65945.72;5022626;28;20037;-85
2022/07/21 02:50:34;;;;;;;27.20;15.55;;;;;;;-148.14;100.00;65945.72;5008008;28;20029;-85
2022/07/21 02:53:02;;;;;;;21.13;12.05;;;;;;;-148.14;100.00;65945.72;5002062;28;20037;-85
2022/07/21 02:55:29;;;;;;;23.00;12.48;;;;;;;-148.14;100.00;65945.72;4986916;28;20033;-84
2022/07/21 02:58:16;;;;;;;20.33;12.27;;;;;;;-148.14;100.00;65945.72;5004139;28;20029;-83
2022/07/21 03:00:49;;;;;;;21.05;12.70;;;;;;;-148.14;100.00;65945.72;5018918;28;20046;-84
2022/07/21 03:03:15;;;;;;;;;;;;;;;-148.14;100.00;65945.72;5003647;28;20527;-84
2022/07/21 03:05:41;;;;;;;17.92;12.48;;;;;;;-148.14;100.00;65945.72;5004108;28;20006;-83
2022/07/21 03:08:09;;;;;;;23.75;12.98;;;;;;;-148.14;100.00;65945.72;5022350;28;20041;-84
2022/07/21 03:10:36;;;;;;;21.35;12.88;;;;;;;-148.14;100.00;65945.72;5001228;28;20033;-85
2022/07/21 03:13:03;;;;;;;19.63;12.90;;;;;;;-148.14;100.00;65945.72;5018222;28;20025;-83
2022/07/21 03:15:29;;;;;;;22.42;12.00;;;;;;;-148.14;100.00;65945.72;5017333;28;20164;-84
2022/07/21 03:17:55;;;;;;;18.63;11.57;;;;;;;-148.14;100.00;65945.72;5022336;28;20091;-85
2022/07/21 03:20:23;;;;;;;22.77;11.50;;;;;;;-148.14;100.00;65945.72;5003054;28;20037;-83
2022/07/21 03:22:51;;;;;;;12.77;9.48;;;;;;;-148.14;100.00;65945.72;5006597;28;20080;-85
2022/07/21 03:25:18;;;;;;;16.55;10.07;;;;;;;-148.14;100.00;65945.72;5021624;28;20036;-84
2022/07/21 03:27:44;;;;;;;19.08;10.25;;;;;;;-148.14;100.00;65945.72;5003648;28;20037;-84
2022/07/21 03:30:11;;;;;;;12.98;9.52;;;;;;;-148.14;100.00;65945.72;5004014;28;20031;-84
2022/07/21 03:32:37;;;;;;;15.35;9.13;;;;;;;-148.14;100.00;65945.72;5022784;28;20029;-82
2022/07/21 03:35:05;;;;;;;11.93;9.25;;;;;;;-148.14;100.00;65945.72;5019350;28;20033;-82
2022/07/21 03:37:31;;;;;;;13.95;10.18;;;;;;;-148.14;100.00;65945.72;5028490;28;20030;-84
2022/07/21 03:39:56;;;;;;;18.48;11.55;;;;;;;-148.14;100.00;65945.72;5001425;28;20033;-83
2022/07/21 03:42:22;;;;;;;14.68;11.10;;;;;;;-148.14;100.00;65945.72;5009275;28;20061;-85
2022/07/21 03:44:48;;;;;;;15.93;11.38;;;;;;;-148.14;100.00;65945.72;4990862;28;20029;-84
2022/07/21 03:47:14;;;;;;;15.52;9.80;;;;;;;-148.14;100.00;65945.72;5019309;28;20472;-83
2022/07/21 03:49:40;;;;;;;12.27;8.90;;;;;;;-148.14;100.00;65945.72;5025020;28;20125;-83
2022/07/21 03:52:06;;;;;;;14.73;8.60;;;;;;;-148.14;100.00;65945.72;5009070;28;20116;-84
2022/07/21 03:54:31;;;;;;;19.35;9.32;;;;;;;-148.14;100.00;65945.72;5026876;28;20072;-83
2022/07/21 03:56:57;;;;;;;14.45;9.63;;;;;;;-148.14;100.00;65945.72;5025078;28;20033;-83
2022/07/21 03:59:22;;;;;;;25.60;12.73;;;;;;;-148.14;100.00;65945.72;5003419;28;20390;-83
2022/07/21 04:01:49;;;;;;;25.90;14.57;;;;;;;-148.14;100.00;65945.72;5008916;28;20041;-84
2022/07/21 04:04:16;;;;;;;17.85;11.75;;;;;;;-148.14;100.00;65945.72;5019107;28;20029;-84
2022/07/21 04:06:50;;;;;;;14.02;8.45;;;;;;;-148.14;100.00;65945.72;5019583;28;20068;-83
2022/07/21 04:09:21;;;;;;;9.98;7.50;;;;;;;-148.14;100.00;65945.72;4987826;28;20026;-84
2022/07/21 04:11:49;;;;;;;8.13;6.80;;;;;;;-148.14;100.00;65945.72;5019755;28;20034;-84
2022/07/21 04:14:15;;;;;;;10.82;6.13;;;;;;;-148.14;100.00;65945.72;5029885;28;20038;-85
2022/07/21 04:16:41;;;;;;;9.60;6.13;;;;;;;-148.14;100.00;65945.72;5002542;28;20041;-85
2022/07/21 04:19:06;;;;;;;15.05;8.30;;;;;;;-148.14;100.00;65945.72;5019968;28;20025;-83
2022/07/21 04:21:32;;;;;;;12.30;7.03;;;;;;;-148.14;100.00;65945.72;5026391;28;20133;-83
2022/07/21 04:23:58;;;;;;;6.32;5.13;;;;;;;-148.14;100.00;65945.72;5009930;28;20044;-84
2022/07/21 04:26:24;;;;;;;5.07;4.45;;;;;;;-148.14;100.00;65945.72;5026522;28;20117;-83
2022/07/21 04:28:50;;;;;;;6.95;3.95;;;;;;;-148.14;100.00;65945.72;5012278;28;20041;-83
2022/07/21 04:31:15;;;;;;;5.22;4.00;;;;;;;-148.14;100.00;65945.72;4992345;28;20468;-84
2022/07/21 04:33:41;;;;;;;4.15;3.03;;;;;;;-148.14;100.00;65945.72;5009009;28;20084;-82
2022/07/21 04:36:07;;;;;;;2.95;2.53;;;;;;;-148.14;100.00;65945.72;5021078;28;20025;-82
2022/07/21 04:38:33;;;;;;;5.65;2.50;;;;;;;-148.14;100.00;65945.72;5026248;28;20036;-84
2022/07/21 04:40:59;;;;;;;2.75;2.08;;;;;;;-148.14;100.00;65945.72;5010640;28;20025;-84
2022/07/21 04:43:24;;;;;;;3.30;1.80;;;;;;;-148.14;100.00;65945.72;5003855;28;20044;-86
2022/07/21 04:45:50;;;;;;;2.65;1.60;;;;;;;-148.14;100.00;65945.72;4996447;28;20105;-83
2022/07/21 04:48:19;;;;;;;1.55;1.33;;;;;;;-148.14;100.00;65945.72;4983995;28;20042;-83
2022/07/21 04:50:45;;;;;;;1.60;1.20;;;;;;;-148.14;100.00;65945.72;4988117;28;20038;-84
2022/07/21 04:53:11;;;;;;;1.40;1.30;;;;;;;-148.14;100.00;65945.72;4990433;28;20029;-84
2022/07/21 04:55:36;;;;;;;1.40;1.30;;;;;;;-148.14;100.00;65945.72;4986364;28;20069;-84
2022/07/21 04:58:02;;;;;;;2.17;1.50;;;;;;;-148.14;100.00;65945.72;4972340;28;20038;-84
2022/07/21 05:00:29;;;;;;;1.52;1.27;;;;;;;-148.14;100.00;65945.72;4993281;28;20045;-83
2022/07/21 05:02:55;;;;;;;2.08;1.58;;;;;;;-148.14;100.00;65945.72;5008120;28;20464;-84
2022/07/21 05:05:21;;;;;;;2.95;1.55;;;;;;;-148.14;100.00;65945.72;4987617;28;20412;-83
2022/07/21 05:07:47;;;;;;;2.42;1.45;;;;;;;-148.14;100.00;65945.72;5000508;28;20564;-83
2022/07/21 05:10:15;;;;;;;1.77;1.45;;;;;;;-148.14;100.00;65945.72;5005739;28;20037;-83
2022/07/21 05:12:41;;;;;;;1.88;1.58;;;;;;;-148.14;100.00;65945.72;5005772;28;20037;-84
2022/07/21 05:15:11;;;;;;;2.03;1.33;;;;;;;-148.14;100.00;65945.72;4974877;28;20121;-84
2022/07/21 05:17:37;;;;;;;1.40;1.30;;;;;;;-148.14;100.00;65945.72;5001470;28;20489;-84
2022/07/21 05:20:04;;;;;;;1.95;1.40;;;;;;;-148.14;100.00;65945.72;5008248;28;20037;-84
2022/07/21 05:22:30;;;;;;;1.40;1.23;;;;;;;-148.14;100.00;65945.72;4993753;28;20038;-84
2022/07/21 05:24:55;;;;;;;1.40;1.30;;;;;;;-148.14;100.00;65945.72;4990109;28;20049;-86
2022/07/21 05:27:21;;;;;;;2.45;1.38;;;;;;;-148.14;100.00;65945.72;4994543;28;20119;-84
2022/07/21 05:29:47;;;;;;;1.17;1.10;;;;;;;-148.14;100.00;65945.72;4977899;28;20385;-87
2022/07/21 05:32:13;;;;;;;1.48;1.17;;;;;;;-148.14;100.00;65945.72;4972728;28;20030;-86
2022/07/21 05:34:39;;;;;;;1.25;1.15;;;;;;;-148.14;100.00;65945.72;5006339;28;20025;-87
2022/07/21 05:37:04;;;;;;;3.30;1.25;;;;;;;-148.14;100.00;65945.72;5005126;28;20057;-85
2022/07/21 05:39:33;;;;;;;2.25;1.02;;;;;;;-148.14;100.00;65945.72;5005044;28;20037;-85
2022/07/21 05:41:58;;;;;;;1.13;1.00;;;;;;;-148.14;100.00;65945.72;5011652;28;20107;-85
2022/07/21 05:44:24;;;;;;;1.45;1.13;;;;;;;-148.14;100.00;65945.72;5026626;28;20026;-83
2022/07/21 05:46:50;;;;;;;1.20;1.10;;;;;;;-148.14;100.00;65945.72;5002360;28;20036;-85
2022/07/21 05:49:16;;;;;;;1.58;1.00;;;;;;;-148.14;100.00;65945.72;5025904;28;20109;-84
2022/07/21 05:51:41;;;;;;;2.38;1.00;;;;;;;-148.14;100.00;65945.72;4991499;28;20037;-83
2022/07/21 05:54:07;;;;;;;1.08;0.98;;;;;;;-148.14;100.00;65945.72;5011698;28;20083;-86
2022/07/21 05:56:32;;;;;;;1.25;1.15;;;;;;;-148.14;100.00;65945.72;5022991;28;20464;-84
2022/07/21 05:58:58;;;;;;;1.65;1.20;;;;;;;-148.14;100.00;65945.72;5004995;28;20392;-86
2022/07/21 06:01:24;;;;;;;1.45;1.10;;;;;;;-148.14;100.00;65945.72;5014826;28;20372;-85
2022/07/21 06:03:51;;;;;;;1.20;1.10;;;;;;;-148.14;100.00;65945.72;5005111;28;20079;-88
2022/07/21 06:06:19;;;;;;;1.25;0.95;;;;;;;-148.14;100.00;65945.72;5002448;28;20484;-85
2022/07/21 06:08:47;;;;;;;1.63;1.02;;;;;;;-148.14;100.00;65945.72;5006609;28;20392;-85
2022/07/21 06:11:16;;;;;;;1.23;1.10;;;;;;;-148.14;100.00;65945.72;5003866;28;20076;-84
2022/07/21 06:13:41;;;;;;;1.33;1.20;;;;;;;-148.14;100.00;65945.72;5004227;28;20030;-84
2022/07/21 06:16:08;;;;;;;1.48;1.00;;;;;;;-148.14;100.00;65945.72;5021917;28;20025;-86
2022/07/21 06:18:34;;;;;;;1.63;0.95;;;;;;;-148.14;100.00;65945.72;5008831;28;20083;-85
2022/07/21 06:21:00;;;;;;;1.38;1.05;;;;;;;-148.14;100.00;65945.72;5003962;28;20026;-84
2022/07/21 06:23:26;;;;;;;2.42;1.10;;;;;;;-148.14;100.00;65945.72;4987067;28;20133;-87
2022/07/21 06:25:52;;;;;;;1.60;1.10;;;;;;;-148.14;100.00;65945.72;5000502;28;20065;-86
2022/07/21 06:28:19;;;;;;;1.33;1.08;;;;;;;-148.14;100.00;65945.72;5024991;28;20056;-86
2022/07/21 06:30:44;;;;;;;1.30;1.20;;;;;;;-148.14;100.00;65945.72;5027918;28;20029;-85
2022/07/21 06:33:11;;;;;;;1.60;1.17;;;;;;;-148.14;100.00;65945.72;5004846;28;20426;-85
2022/07/21 06:35:37;;;;;;;5.40;1.92;;;;;;;-148.14;100.00;65945.72;5002091;28;20030;-84
2022/07/21 06:38:03;;;;;;;2.20;1.40;;;;;;;-148.14;100.00;65945.72;5022545;28;20112;-86
2022/07/21 06:40:53;;;;;;;2.53;1.75;;;;;;;-148.14;100.00;65945.72;5029415;28;20041;-86
2022/07/21 06:43:19;;;;;;;2.75;1.42;;;;;;;-148.14;100.00;65945.72;4986940;28;20053;-86
2022/07/21 06:45:45;;;;;;;2.40;1.40;;;;;;;-148.14;100.00;65945.72;5014609;28;20068;-84
2022/07/21 06:48:12;;;;;;;2.35;1.30;;;;;;;-148.14;100.00;65945.72;5003417;28;20022;-86
2022/07/21 06:50:37;;;;;;;1.80;1.50;;;;;;;-148.14;100.00;65945.72;4987120;28;20033;-89
2022/07/21 06:53:06;;;;;;;2.10;1.55;;;;;;;-148.14;100.00;65945.72;5022891;28;20086;-84
2022/07/21 06:55:33;;;;;;;2.22;1.40;;;;;;;-148.14;100.00;65945.72;5003805;28;20030;-85
2022/07/21 06:58:08;;;;;;;2.53;1.75;;;;;;;-148.14;100.00;65945.72;4988567;28;20025;-86
2022/07/21 07:00:38;;;;;;;3.10;1.65;;;;;;;-148.14;100.00;65945.72;5006149;28;20041;-87
2022/07/21 07:03:04;;;;;;;1.67;1.48;;;;;;;-148.14;100.00;65945.72;5032960;28;20033;-86
2022/07/21 07:05:30;;;;;;;1.73;1.23;;;;;;;-148.14;100.00;65945.72;4990387;28;20089;-86
2022/07/21 07:07:57;;;;;;;3.38;2.38;;;;;;;-148.14;100.00;65945.72;5006346;28;20029;-86
2022/07/21 07:10:23;;;;;;;5.53;4.32;;;;;;;-148.14;100.00;65945.72;4987085;28;20022;-85
2022/07/21 07:12:48;;;;;;;4.72;4.10;;;;;;;-148.14;100.00;65945.72;4995989;28;20034;-85
2022/07/21 07:15:14;;;;;;;5.88;4.07;;;;;;;-148.14;100.00;65945.72;5023404;28;20025;-85
2022/07/21 07:17:40;;;;;;;5.55;4.57;;;;;;;-148.14;100.00;65945.72;4987202;28;20041;-86
2022/07/21 07:20:07;;;;;;;9.20;5.00;;;;;;;-148.14;100.00;65945.72;5020763;28;20476;-86
2022/07/21 07:22:36;;;;;;;5.82;4.60;;;;;;;-148.14;100.00;65945.72;5016423;28;20403;-86
2022/07/21 07:25:02;;;;;;;5.15;4.32;;;;;;;-148.14;100.00;65945.72;5010068;28;20229;-88
2022/07/21 07:27:28;;;;;;;5.82;4.60;;;;;;;-148.14;100.00;65945.72;5005042;28;20427;-86
2022/07/21 07:29:53;;;;;;;8.40;4.20;;;;;;;-148.14;100.00;65945.72;5009659;28;20026;-87
2022/07/21 07:32:22;;;;;;;7.28;5.00;;;;;;;-148.14;100.00;65945.72;5003770;28;20567;-84
2022/07/21 07:34:48;;;;;;;5.80;4.93;;;;;;;-148.14;100.00;65945.72;5004609;28;20025;-86
2022/07/21 07:37:14;;;;;;;7.07;4.80;;;;;;;-148.14;100.00;65945.72;5008922;28;20428;-84
2022/07/21 07:39:40;;;;;;;8.40;4.63;;;;;;;-148.14;100.00;65945.72;5011578;28;20060;-91
2022/07/21 07:42:06;;;;;;;8.57;4.88;;;;;;;-148.14;100.00;65945.72;5034698;28;20042;-85
2022/07/21 07:44:33;;;;;;;5.35;4.40;;;;;;;-148.14;100.00;65945.72;5024898;28;20057;-85
2022/07/21 07:47:02;;;;;;;7.82;3.47;;;;;;;-148.14;100.00;65945.72;5028743;28;20087;-84
2022/07/21 07:49:31;;;;;;;9.65;3.88;;;;;;;-148.14;100.00;65945.72;4991773;28;20044;-84
2022/07/21 07:52:02;;;;;;;3.88;3.58;;;;;;;-148.14;100.00;65945.72;5020596;28;20049;-85
2022/07/21 07:54:28;;;;;;;4.88;3.63;;;;;;;-148.14;100.00;65945.72;5024221;28;20021;-87
2022/07/21 07:56:53;;;;;;;3.85;2.92;;;;;;;-148.14;100.00;65945.72;5006440;28;20042;-83
2022/07/21 07:59:19;;;;;;;5.13;3.63;;;;;;;-148.14;100.00;65945.72;5009478;28;20079;-85
2022/07/21 08:01:45;;;;;;;4.90;3.00;;;;;;;-148.14;100.00;65945.72;4995008;28;20040;-85
2022/07/21 08:04:10;;;;;;;4.55;3.13;;;;;;;-148.14;100.00;65945.72;4997719;28;20113;-88
2022/07/21 08:06:37;;;;;;;6.13;3.58;;;;;;;-148.14;100.00;65945.72;4988410;28;20120;-89
2022/07/21 08:09:06;;;;;;;3.70;3.00;;;;;;;-148.14;100.00;65945.72;5012821;28;20025;-90
2022/07/21 08:11:31;;;;;;;9.77;3.63;;;;;;;-148.14;100.00;65945.72;5005627;28;20055;-87
2022/07/21 08:13:57;;;;;;;5.70;3.33;;;;;;;-148.14;100.00;65945.72;5023191;28;20502;-88
2022/07/21 08:16:23;;;;;;;3.97;3.20;;;;;;;-148.14;100.00;65945.72;5017968;28;20049;-87
2022/07/21 08:18:51;;;;;;;3.95;3.47;;;;;;;-148.14;100.00;65945.72;5006835;28;20088;-86
2022/07/21 08:21:17;;;;;;;6.00;4.18;;;;;;;-148.14;100.00;65945.72;5022431;28;20061;-87
2022/07/21 08:23:43;;;;;;;4.50;3.67;;;;;;;-148.14;100.00;65945.72;4993516;28;20052;-87
2022/07/21 08:26:08;;;;;;;10.20;3.90;;;;;;;-148.14;100.00;65945.72;5005862;28;20030;-87
2022/07/21 08:28:34;;;;;;;7.35;3.95;;;;;;;-148.14;100.00;65945.72;5008777;28;20040;-88
2022/07/21 08:30:59;;;;;;;6.18;3.83;;;;;;;-148.14;100.00;65945.72;5008220;28;20099;-89
2022/07/21 08:33:25;;;;;;;7.57;3.88;;;;;;;-148.14;100.00;65945.72;5003942;28;20125;-87
2022/07/21 08:35:51;;;;;;;4.40;4.00;;;;;;;-148.14;100.00;65945.72;5011311;28;20060;-88
2022/07/21 08:38:18;;;;;;;5.32;3.80;;;;;;;-148.14;100.00;65945.72;5004749;28;20033;-85
2022/07/21 08:40:46;;;;;;;10.65;4.55;;;;;;;-148.14;100.00;65945.72;5002868;28;20034;-86
2022/07/21 08:43:14;;;;;;;10.30;4.25;;;;;;;-148.14;100.00;65945.72;5004833;28;20062;-88
2022/07/21 08:45:40;;;;;;;15.88;4.65;;;;;;;-148.14;100.00;65945.72;5006257;28;20088;-88
2022/07/21 08:48:07;;;;;;;10.65;5.03;;;;;;;-148.14;100.00;65945.72;5029464;28;20029;-88
2022/07/21 08:50:36;;;;;;;6.25;3.92;;;;;;;-148.14;100.00;65945.72;5009656;28;20026;-89
2022/07/21 08:53:02;;;;;;;7.88;3.97;;;;;;;-148.14;100.00;65945.72;4995791;28;20042;-88
2022/07/21 08:55:30;;;;;;;6.97;3.72;;;;;;;-148.14;100.00;65945.72;5009099;28;20048;-84
2022/07/21 08:58:03;;;;;;;6.30;3.58;;;;;;;-148.14;100.00;65945.72;5027533;28;20124;-88
2022/07/21 09:00:54;;;;;;;3.67;3.35;;;;;;;-148.14;100.00;65945.72;4994286;28;20069;-91
2022/07/21 09:03:26;;;;;;;4.88;3.05;;;;;;;-148.14;100.00;65945.72;5008194;28;20059;-90
2022/07/21 09:06:13;;;;;;;6.03;3.95;;;;;;;-148.14;100.00;65945.72;4992996;28;20037;-91
2022/07/21 09:08:48;;;;;;;4.78;3.33;;;;;;;-148.14;100.00;65945.72;4981710;28;20034;-91
2022/07/21 09:11:20;;;;;;;4.15;3.10;;;;;;;-148.14;100.00;65945.72;5005801;28;20128;-90
2022/07/21 09:14:03;;;;;;;4.77;3.63;;;;;;;-148.14;100.00;65945.72;5009614;28;20030;-90
2022/07/21 09:16:35;;;;;;;5.32;4.28;;;;;;;-148.14;100.00;65945.72;5012753;28;20037;-91
2022/07/21 09:19:15;;;;;;;6.10;3.83;;;;;;;-148.14;100.00;65945.72;5024455;28;20025;-91
2022/07/21 09:21:47;;;;;;;5.63;4.10;;;;;;;-148.14;100.00;65945.72;5001417;28;20034;-91
2022/07/21 09:24:33;;;;;;;5.88;3.70;;;;;;;-148.14;100.00;65945.72;5025272;28;20369;-90
2022/07/21 09:27:20;;;;;;;4.47;3.55;;;;;;;-148.14;100.00;65945.72;5014641;28;20034;-90
2022/07/21 09:30:03;;;;;;;6.07;4.28;;;;;;;-148.14;100.00;65945.72;5030659;28;20030;-90
2022/07/21 09:32:34;;;;;;;8.43;4.27;;;;;;;-148.14;100.00;65945.72;5015193;28;20072;-91
2022/07/21 09:35:03;;;;;;;4.32;3.80;;;;;;;-148.14;100.00;65945.72;5030340;28;20048;-90
2022/07/21 09:37:29;;;;;;;5.35;4.00;;;;;;;-148.14;100.00;65945.72;5015265;28;20029;-89
2022/07/21 09:40:11;;;;;;;6.68;3.78;;;;;;;-148.14;100.00;65945.72;4998769;28;20522;-91
2022/07/21 09:42:46;;;;;;;4.78;3.97;;;;;;;-148.14;100.00;65945.72;5001674;28;20050;-91
2022/07/21 09:45:19;;;;;;;5.28;4.13;;;;;;;-148.14;100.00;65945.72;5013906;28;20034;-89
2022/07/21 09:47:54;;;;;;;6.15;4.07;;;;;;;-148.14;100.00;65945.72;4980722;28;20107;-90
2022/07/21 09:50:23;;;;;;;5.65;4.53;;;;;;;-148.14;100.00;65945.72;4992716;28;20038;-90
2022/07/21 09:53:02;;;;;;;4.78;4.28;;;;;;;-148.14;100.00;65945.72;4996413;28;20061;-91
2022/07/21 09:55:31;;;;;;;7.07;4.60;;;;;;;-148.14;100.00;65945.72;4995351;28;20068;-90
2022/07/21 09:58:02;;;;;;;7.60;4.75;;;;;;;-148.14;100.00;65945.72;4997181;28;20026;-90
2022/07/21 10:00:31;;;;;;;6.57;5.00;;;;;;;-148.14;100.00;65945.72;5012500;28;20034;-90
2022/07/21 10:02:58;;;;;;;6.15;5.53;;;;;;;-148.14;100.00;65945.72;5024373;28;20026;-90
2022/07/21 10:05:25;;;;;;;6.72;5.28;;;;;;;-148.14;100.00;65945.72;5004448;28;20056;-90
2022/07/21 10:08:00;;;;;;;8.60;5.47;;;;;;;-148.14;100.00;65945.72;5022698;28;20471;-91
2022/07/21 10:10:30;;;;;;;7.18;5.95;;;;;;;-148.14;100.00;65945.72;4995513;28;20034;-90
2022/07/21 10:12:56;;;;;;;6.25;5.57;;;;;;;-148.14;100.00;65945.72;4984438;28;20032;-91
2022/07/21 10:15:23;;;;;;;8.20;5.78;;;;;;;-148.14;100.00;65945.72;4999437;28;20097;-91
2022/07/21 10:17:53;;;;;;;9.52;5.28;;;;;;;-148.14;100.00;65945.72;4987850;28;20038;-90
2022/07/21 10:20:34;;;;;;;7.43;5.93;;;;;;;-148.14;100.00;65945.72;4989772;28;20030;-90
2022/07/21 10:23:14;;;;;;;6.57;5.57;;;;;;;-148.14;100.00;65945.72;4979488;28;20065;-92
2022/07/21 10:25:42;;;;;;;6.75;5.63;;;;;;;-148.14;100.00;65945.72;4977702;28;20034;-91
2022/07/21 10:28:17;;;;;;;9.13;6.30;;;;;;;-148.14;100.00;65945.72;5001422;28;20092;-92
2022/07/21 10:30:49;;;;;;;8.13;6.00;;;;;;;-148.14;100.00;65945.72;4977466;28;20065;-92
2022/07/21 10:33:21;;;;;;;8.00;5.93;;;;;;;-148.14;100.00;65945.72;4985489;28;20034;-90
2022/07/21 10:35:53;;;;;;;9.90;5.82;;;;;;;-148.14;100.00;65945.72;5005843;28;20272;-91
2022/07/21 10:38:34;;;;;;;7.43;5.47;;;;;;;-148.14;100.00;65945.72;4979897;28;20033;-91
2022/07/21 10:41:42;;;;;;;10.35;5.63;;;;;;;-148.14;100.00;65945.72;5019439;28;20043;-90
2022/07/21 10:44:32;;;;;;;8.60;5.82;;;;;;;-148.14;100.00;65945.72;4995457;28;20042;-90
2022/07/21 10:47:23;;;;;;;8.98;6.70;;;;;;;-148.14;100.00;65945.72;5006796;28;20089;-91
2022/07/21 10:50:07;;;;;;;8.10;6.82;;;;;;;-148.14;100.00;65945.72;4990528;28;20029;-91
2022/07/21 10:52:38;;;;;;;10.90;7.30;;;;;;;-148.14;100.00;65945.72;5030297;28;20103;-90
2022/07/21 10:55:26;;;;;;;11.25;6.78;;;;;;;-148.14;100.00;65945.72;5001371;28;20045;-90
2022/07/21 10:58:23;;;;;;;10.25;7.50;;;;;;;-148.14;100.00;65945.72;5011818;28;20077;-90
2022/07/21 11:01:42;;;;;;;13.98;7.45;;;;;;;-148.14;100.00;65945.72;5000100;28;20040;-90
2022/07/21 11:04:16;;;;;;;9.25;6.95;;;;;;;-148.14;100.00;65945.72;5007162;28;20476;-87
2022/07/21 11:06:45;;;;;;;8.88;7.07;;;;;;;-148.14;100.00;65945.72;4996227;28;20120;-85
2022/07/21 11:09:17;;;;;;;8.20;6.85;;;;;;;-148.14;100.00;65945.72;4990493;28;20539;-87
2022/07/21 11:12:03;;;;;;;9.18;6.40;;;;;;;-148.14;100.00;65945.72;4996473;28;20120;-85
2022/07/21 11:14:41;;;;;;;10.07;7.13;;;;;;;-148.14;100.00;65945.72;4985938;28;20033;-87